sensor_id;sensor_type;location;lat;lon;timestamp;pressure;altitude;pressure_sealevel;temperature;humidity
23635;BME280;11994;51.038;16.974;2023-03-15T00:01:54;99241.06;;;4.01;81.47
23635;BME280;11994;51.038;16.974;2023-03-15T00:04:19;99244.50;;;4.04;81.51
23635;BME280;11994;51.038;16.974;2023-03-15T00:06:45;99248.98;;;4.05;81.27
23635;BME280;11994;51.038;16.974;2023-03-15T00:09:11;99256.05;;;4.06;81.34
23635;BME280;11994;51.038;16.974;2023-03-15T00:11:37;99257.27;;;4.06;81.25
23635;BME280;11994;51.038;16.974;2023-03-15T00:14:02;99257.26;;;4.07;81.29
23635;BME280;11994;51.038;16.974;2023-03-15T00:16:29;99260.56;;;4.05;81.10
23635;BME280;11994;51.038;16.974;2023-03-15T00:18:57;99268.32;;;4.07;81.18
23635;BME280;11994;51.038;16.974;2023-03-15T00:21:23;99271.21;;;4.11;81.06
23635;BME280;11994;51.038;16.974;2023-03-15T00:23:48;99278.81;;;4.12;81.16
23635;BME280;11994;51.038;16.974;2023-03-15T00:26:14;99277.42;;;4.12;81.22
23635;BME280;11994;51.038;16.974;2023-03-15T00:28:40;99281.93;;;4.11;81.13
23635;BME280;11994;51.038;16.974;2023-03-15T00:31:17;99290.25;;;4.10;80.91
23635;BME280;11994;51.038;16.974;2023-03-15T00:33:44;99296.15;;;4.08;80.96
23635;BME280;11994;51.038;16.974;2023-03-15T00:36:10;99302.02;;;4.09;80.83
23635;BME280;11994;51.038;16.974;2023-03-15T00:38:37;99303.75;;;4.09;80.76
23635;BME280;11994;51.038;16.974;2023-03-15T00:41:09;99310.16;;;4.08;80.83
23635;BME280;11994;51.038;16.974;2023-03-15T00:43:35;99315.39;;;4.06;80.53
23635;BME280;11994;51.038;16.974;2023-03-15T00:46:01;99321.47;;;4.04;80.68
23635;BME280;11994;51.038;16.974;2023-03-15T00:48:27;99320.63;;;4.02;80.45
23635;BME280;11994;51.038;16.974;2023-03-15T00:51:11;99318.40;;;3.99;80.55
23635;BME280;11994;51.038;16.974;2023-03-15T00:53:38;99319.77;;;4.00;80.49
23635;BME280;11994;51.038;16.974;2023-03-15T00:56:06;99316.14;;;4.00;80.52
23635;BME280;11994;51.038;16.974;2023-03-15T00:58:32;99317.36;;;4.00;80.47
23635;BME280;11994;51.038;16.974;2023-03-15T01:00:58;99315.45;;;4.00;80.43
23635;BME280;11994;51.038;16.974;2023-03-15T01:03:23;99320.66;;;3.97;80.24
23635;BME280;11994;51.038;16.974;2023-03-15T01:05:48;99316.20;;;3.95;80.22
23635;BME280;11994;51.038;16.974;2023-03-15T01:08:14;99314.50;;;3.94;80.17
23635;BME280;11994;51.038;16.974;2023-03-15T01:10:39;99311.55;;;3.94;80.26
23635;BME280;11994;51.038;16.974;2023-03-15T01:13:04;99309.80;;;3.96;80.22
23635;BME280;11994;51.038;16.974;2023-03-15T01:15:31;99315.67;;;3.96;80.12
23635;BME280;11994;51.038;16.974;2023-03-15T01:17:56;99318.97;;;3.95;80.03
23635;BME280;11994;51.038;16.974;2023-03-15T01:20:21;99318.11;;;3.94;80.03
23635;BME280;11994;51.038;16.974;2023-03-15T01:22:47;99319.53;;;3.91;79.80
23635;BME280;11994;51.038;16.974;2023-03-15T01:25:12;99321.83;;;3.89;79.66
23635;BME280;11994;51.038;16.974;2023-03-15T01:27:38;99322.85;;;3.89;79.64
23635;BME280;11994;51.038;16.974;2023-03-15T01:30:04;99325.11;;;3.89;79.55
23635;BME280;11994;51.038;16.974;2023-03-15T01:32:29;99324.95;;;3.88;79.47
23635;BME280;11994;51.038;16.974;2023-03-15T01:34:55;99321.83;;;3.87;79.31
23635;BME280;11994;51.038;16.974;2023-03-15T01:37:20;99324.79;;;3.85;79.18
23635;BME280;11994;51.038;16.974;2023-03-15T01:39:49;99329.51;;;3.81;78.87
23635;BME280;11994;51.038;16.974;2023-03-15T01:42:15;99332.49;;;3.78;78.95
23635;BME280;11994;51.038;16.974;2023-03-15T01:47:15;99345.47;;;3.75;78.78
23635;BME280;11994;51.038;16.974;2023-03-15T01:49:41;99354.30;;;3.76;78.66
23635;BME280;11994;51.038;16.974;2023-03-15T01:52:12;99367.09;;;3.75;78.70
23635;BME280;11994;51.038;16.974;2023-03-15T01:54:47;99366.42;;;3.72;78.82
23635;BME280;11994;51.038;16.974;2023-03-15T01:57:18;99368.18;;;3.70;78.66
23635;BME280;11994;51.038;16.974;2023-03-15T01:59:59;99372.70;;;3.68;78.41
23635;BME280;11994;51.038;16.974;2023-03-15T02:02:26;99380.67;;;3.65;78.51
23635;BME280;11994;51.038;16.974;2023-03-15T02:05:01;99386.77;;;3.61;78.27
23635;BME280;11994;51.038;16.974;2023-03-15T02:07:31;99398.86;;;3.61;78.24
23635;BME280;11994;51.038;16.974;2023-03-15T02:10:06;99408.19;;;3.61;78.48
23635;BME280;11994;51.038;16.974;2023-03-15T02:12:35;99411.81;;;3.62;78.54
23635;BME280;11994;51.038;16.974;2023-03-15T02:15:04;99414.59;;;3.61;78.60
23635;BME280;11994;51.038;16.974;2023-03-15T02:17:35;99421.00;;;3.61;78.53
23635;BME280;11994;51.038;16.974;2023-03-15T02:23:10;99432.75;;;3.58;78.56
23635;BME280;11994;51.038;16.974;2023-03-15T02:28:21;99442.81;;;3.55;78.54
23635;BME280;11994;51.038;16.974;2023-03-15T02:30:47;99449.54;;;3.55;78.51
23635;BME280;11994;51.038;16.974;2023-03-15T02:33:21;99456.09;;;3.58;78.42
23635;BME280;11994;51.038;16.974;2023-03-15T02:35:48;99473.55;;;3.59;78.53
23635;BME280;11994;51.038;16.974;2023-03-15T02:38:13;99474.24;;;3.59;78.59
23635;BME280;11994;51.038;16.974;2023-03-15T02:40:39;99478.57;;;3.59;78.74
23635;BME280;11994;51.038;16.974;2023-03-15T02:43:09;99479.27;;;3.57;78.50
23635;BME280;11994;51.038;16.974;2023-03-15T02:45:37;99480.67;;;3.55;78.43
23635;BME280;11994;51.038;16.974;2023-03-15T02:48:04;99487.25;;;3.52;78.40
23635;BME280;11994;51.038;16.974;2023-03-15T02:50:31;99489.85;;;3.50;78.39
23635;BME280;11994;51.038;16.974;2023-03-15T02:52:56;99494.19;;;3.50;78.35
23635;BME280;11994;51.038;16.974;2023-03-15T02:55:22;99500.40;;;3.51;78.44
23635;BME280;11994;51.038;16.974;2023-03-15T02:57:47;99507.48;;;3.52;78.35
23635;BME280;11994;51.038;16.974;2023-03-15T03:00:13;99507.12;;;3.52;78.37
23635;BME280;11994;51.038;16.974;2023-03-15T03:02:44;99504.88;;;3.51;78.22
23635;BME280;11994;51.038;16.974;2023-03-15T03:05:10;99511.80;;;3.50;78.10
23635;BME280;11994;51.038;16.974;2023-03-15T03:07:36;99510.77;;;3.49;78.35
23635;BME280;11994;51.038;16.974;2023-03-15T03:10:03;99506.83;;;3.48;78.22
23635;BME280;11994;51.038;16.974;2023-03-15T03:12:29;99505.61;;;3.46;78.08
23635;BME280;11994;51.038;16.974;2023-03-15T03:14:54;99509.09;;;3.45;77.93
23635;BME280;11994;51.038;16.974;2023-03-15T03:17:21;99512.70;;;3.45;77.78
23635;BME280;11994;51.038;16.974;2023-03-15T03:19:47;99515.65;;;3.44;77.81
23635;BME280;11994;51.038;16.974;2023-03-15T03:22:12;99511.52;;;3.39;77.75
23635;BME280;11994;51.038;16.974;2023-03-15T03:24:38;99511.73;;;3.36;77.69
23635;BME280;11994;51.038;16.974;2023-03-15T03:27:04;99513.29;;;3.34;77.57
23635;BME280;11994;51.038;16.974;2023-03-15T03:29:29;99512.09;;;3.32;77.76
23635;BME280;11994;51.038;16.974;2023-03-15T03:31:55;99519.03;;;3.30;77.65
23635;BME280;11994;51.038;16.974;2023-03-15T03:34:20;99522.66;;;3.27;77.57
23635;BME280;11994;51.038;16.974;2023-03-15T03:36:46;99529.75;;;3.27;77.60
23635;BME280;11994;51.038;16.974;2023-03-15T03:39:13;99534.74;;;3.30;77.64
23635;BME280;11994;51.038;16.974;2023-03-15T03:41:38;99540.08;;;3.31;77.67
23635;BME280;11994;51.038;16.974;2023-03-15T03:44:04;99541.45;;;3.32;77.80
23635;BME280;11994;51.038;16.974;2023-03-15T03:46:30;99541.64;;;3.32;77.75
23635;BME280;11994;51.038;16.974;2023-03-15T03:48:55;99546.14;;;3.30;77.78
23635;BME280;11994;51.038;16.974;2023-03-15T03:51:20;99545.11;;;3.28;77.61
23635;BME280;11994;51.038;16.974;2023-03-15T03:53:46;99545.65;;;3.25;77.67
23635;BME280;11994;51.038;16.974;2023-03-15T03:56:11;99541.87;;;3.21;77.47
23635;BME280;11994;51.038;16.974;2023-03-15T03:58:37;99541.52;;;3.20;77.59
23635;BME280;11994;51.038;16.974;2023-03-15T04:01:03;99544.80;;;3.21;77.79
23635;BME280;11994;51.038;16.974;2023-03-15T04:03:28;99552.42;;;3.20;77.82
23635;BME280;11994;51.038;16.974;2023-03-15T04:05:55;99553.63;;;3.18;77.66
23635;BME280;11994;51.038;16.974;2023-03-15T04:08:22;99552.09;;;3.15;77.62
23635;BME280;11994;51.038;16.974;2023-03-15T04:10:52;99549.33;;;3.15;77.84
23635;BME280;11994;51.038;16.974;2023-03-15T04:13:19;99553.14;;;3.13;77.87
23635;BME280;11994;51.038;16.974;2023-03-15T04:15:45;99559.17;;;3.11;77.92
23635;BME280;11994;51.038;16.974;2023-03-15T04:18:11;99562.30;;;3.09;77.77
23635;BME280;11994;51.038;16.974;2023-03-15T04:20:36;99569.38;;;3.10;77.85
23635;BME280;11994;51.038;16.974;2023-03-15T04:23:02;99571.80;;;3.12;77.87
23635;BME280;11994;51.038;16.974;2023-03-15T04:25:27;99581.98;;;3.14;78.08
23635;BME280;11994;51.038;16.974;2023-03-15T04:27:53;99594.23;;;3.16;77.93
23635;BME280;11994;51.038;16.974;2023-03-15T04:30:27;99596.65;;;3.17;77.87
23635;BME280;11994;51.038;16.974;2023-03-15T04:32:54;99606.33;;;3.15;77.67
23635;BME280;11994;51.038;16.974;2023-03-15T04:35:31;99607.90;;;3.11;77.54
23635;BME280;11994;51.038;16.974;2023-03-15T04:37:57;99611.38;;;3.05;77.51
23635;BME280;11994;51.038;16.974;2023-03-15T04:40:23;99612.77;;;3.03;77.69
23635;BME280;11994;51.038;16.974;2023-03-15T04:42:49;99620.02;;;2.99;77.54
23635;BME280;11994;51.038;16.974;2023-03-15T04:45:15;99623.14;;;2.97;77.58
23635;BME280;11994;51.038;16.974;2023-03-15T04:47:41;99620.90;;;2.97;77.65
23635;BME280;11994;51.038;16.974;2023-03-15T04:50:07;99620.38;;;2.95;77.56
23635;BME280;11994;51.038;16.974;2023-03-15T04:52:33;99618.65;;;2.94;77.66
23635;BME280;11994;51.038;16.974;2023-03-15T04:54:58;99626.96;;;2.91;77.72
23635;BME280;11994;51.038;16.974;2023-03-15T04:57:23;99628.67;;;2.89;77.57
23635;BME280;11994;51.038;16.974;2023-03-15T04:59:48;99630.06;;;2.86;77.62
23635;BME280;11994;51.038;16.974;2023-03-15T05:02:14;99634.91;;;2.82;77.58
23635;BME280;11994;51.038;16.974;2023-03-15T05:04:40;99642.88;;;2.79;77.65
23635;BME280;11994;51.038;16.974;2023-03-15T05:07:07;99648.05;;;2.79;77.69
23635;BME280;11994;51.038;16.974;2023-03-15T05:09:32;99646.48;;;2.81;77.83
23635;BME280;11994;51.038;16.974;2023-03-15T05:12:06;99652.70;;;2.80;77.73
23635;BME280;11994;51.038;16.974;2023-03-15T05:14:31;99650.98;;;2.79;77.57
23635;BME280;11994;51.038;16.974;2023-03-15T05:16:57;99644.23;;;2.78;77.44
23635;BME280;11994;51.038;16.974;2023-03-15T05:19:27;99648.39;;;2.75;77.33
23635;BME280;11994;51.038;16.974;2023-03-15T05:21:53;99649.42;;;2.73;77.46
23635;BME280;11994;51.038;16.974;2023-03-15T05:24:21;99654.09;;;2.69;77.52
23635;BME280;11994;51.038;16.974;2023-03-15T05:26:46;99658.23;;;2.66;77.59
23635;BME280;11994;51.038;16.974;2023-03-15T05:29:12;99662.20;;;2.66;77.56
23635;BME280;11994;51.038;16.974;2023-03-15T05:31:38;99673.43;;;2.69;77.40
23635;BME280;11994;51.038;16.974;2023-03-15T05:34:04;99677.05;;;2.69;77.60
23635;BME280;11994;51.038;16.974;2023-03-15T05:36:30;99689.30;;;2.71;77.49
23635;BME280;11994;51.038;16.974;2023-03-15T05:38:56;99691.55;;;2.72;77.51
23635;BME280;11994;51.038;16.974;2023-03-15T05:41:22;99694.13;;;2.72;77.60
23635;BME280;11994;51.038;16.974;2023-03-15T05:43:48;99697.77;;;2.72;77.39
23635;BME280;11994;51.038;16.974;2023-03-15T05:46:14;99707.44;;;2.71;77.35
23635;BME280;11994;51.038;16.974;2023-03-15T05:48:40;99712.95;;;2.71;77.41
23635;BME280;11994;51.038;16.974;2023-03-15T05:51:05;99710.71;;;2.70;77.34
23635;BME280;11994;51.038;16.974;2023-03-15T05:53:30;99715.18;;;2.72;77.15
23635;BME280;11994;51.038;16.974;2023-03-15T05:55:56;99721.58;;;2.76;77.37
23635;BME280;11994;51.038;16.974;2023-03-15T05:58:21;99722.27;;;2.77;77.27
23635;BME280;11994;51.038;16.974;2023-03-15T06:00:46;99726.06;;;2.80;77.40
23635;BME280;11994;51.038;16.974;2023-03-15T06:03:14;99727.27;;;2.81;77.15
23635;BME280;11994;51.038;16.974;2023-03-15T06:05:40;99729.69;;;2.82;77.18
23635;BME280;11994;51.038;16.974;2023-03-15T06:08:06;99738.49;;;2.82;77.13
23635;BME280;11994;51.038;16.974;2023-03-15T06:10:31;99741.43;;;2.83;76.92
23635;BME280;11994;51.038;16.974;2023-03-15T06:12:58;99749.20;;;2.84;77.03
23635;BME280;11994;51.038;16.974;2023-03-15T06:15:23;99756.80;;;2.83;76.94
23635;BME280;11994;51.038;16.974;2023-03-15T06:17:49;99763.36;;;2.85;76.98
23635;BME280;11994;51.038;16.974;2023-03-15T06:20:14;99763.02;;;2.90;76.83
23635;BME280;11994;51.038;16.974;2023-03-15T06:22:40;99767.67;;;2.95;77.12
23635;BME280;11994;51.038;16.974;2023-03-15T06:25:06;99768.02;;;3.00;77.04
23635;BME280;11994;51.038;16.974;2023-03-15T06:27:31;99778.04;;;3.02;76.86
23635;BME280;11994;51.038;16.974;2023-03-15T06:29:57;99782.19;;;3.04;76.93
23635;BME280;11994;51.038;16.974;2023-03-15T06:32:22;99788.40;;;3.05;76.78
23635;BME280;11994;51.038;16.974;2023-03-15T06:34:48;99793.74;;;3.08;76.85
23635;BME280;11994;51.038;16.974;2023-03-15T06:37:13;99791.67;;;3.11;76.73
23635;BME280;11994;51.038;16.974;2023-03-15T06:39:40;99795.13;;;3.12;76.65
23635;BME280;11994;51.038;16.974;2023-03-15T06:42:05;99800.66;;;3.12;76.43
23635;BME280;11994;51.038;16.974;2023-03-15T06:44:33;99801.52;;;3.17;76.64
23635;BME280;11994;51.038;16.974;2023-03-15T06:46:59;99801.16;;;3.22;76.36
23635;BME280;11994;51.038;16.974;2023-03-15T06:49:24;99804.45;;;3.27;76.33
23635;BME280;11994;51.038;16.974;2023-03-15T06:51:50;99808.77;;;3.34;76.51
23635;BME280;11994;51.038;16.974;2023-03-15T06:54:15;99809.96;;;3.39;76.33
23635;BME280;11994;51.038;16.974;2023-03-15T06:56:41;99809.61;;;3.46;76.24
23635;BME280;11994;51.038;16.974;2023-03-15T06:59:06;99815.82;;;3.52;76.16
23635;BME280;11994;51.038;16.974;2023-03-15T07:01:32;99818.75;;;3.55;76.16
23635;BME280;11994;51.038;16.974;2023-03-15T07:03:57;99817.36;;;3.57;75.74
23635;BME280;11994;51.038;16.974;2023-03-15T07:06:23;99818.91;;;3.57;75.64
23635;BME280;11994;51.038;16.974;2023-03-15T07:08:48;99826.17;;;3.58;75.58
23635;BME280;11994;51.038;16.974;2023-03-15T07:11:13;99827.38;;;3.62;75.71
23635;BME280;11994;51.038;16.974;2023-03-15T07:13:39;99830.13;;;3.69;75.54
23635;BME280;11994;51.038;16.974;2023-03-15T07:16:04;99834.27;;;3.75;75.59
23635;BME280;11994;51.038;16.974;2023-03-15T07:18:31;99836.33;;;3.81;75.57
23635;BME280;11994;51.038;16.974;2023-03-15T07:20:59;99839.79;;;3.87;75.20
23635;BME280;11994;51.038;16.974;2023-03-15T07:23:25;99838.73;;;3.88;75.17
23635;BME280;11994;51.038;16.974;2023-03-15T07:25:50;99843.57;;;3.91;74.92
23635;BME280;11994;51.038;16.974;2023-03-15T07:28:16;99847.52;;;3.98;75.00
23635;BME280;11994;51.038;16.974;2023-03-15T07:30:41;99853.23;;;3.99;74.59
23635;BME280;11994;51.038;16.974;2023-03-15T07:33:06;99853.41;;;3.98;74.52
23635;BME280;11994;51.038;16.974;2023-03-15T07:35:31;99860.33;;;4.01;74.48
23635;BME280;11994;51.038;16.974;2023-03-15T07:37:57;99862.55;;;4.04;74.64
23635;BME280;11994;51.038;16.974;2023-03-15T07:40:22;99865.46;;;4.15;74.73
23635;BME280;11994;51.038;16.974;2023-03-15T07:42:50;99864.39;;;4.25;74.62
23635;BME280;11994;51.038;16.974;2023-03-15T07:45:15;99868.51;;;4.33;74.27
23635;BME280;11994;51.038;16.974;2023-03-15T07:47:41;99869.55;;;4.35;74.04
23635;BME280;11994;51.038;16.974;2023-03-15T07:50:07;99875.27;;;4.35;73.65
23635;BME280;11994;51.038;16.974;2023-03-15T07:52:32;99875.77;;;4.34;73.49
23635;BME280;11994;51.038;16.974;2023-03-15T07:54:58;99882.86;;;4.36;73.73
23635;BME280;11994;51.038;16.974;2023-03-15T07:57:23;99882.84;;;4.41;73.32
23635;BME280;11994;51.038;16.974;2023-03-15T07:59:49;99880.25;;;4.39;72.59
23635;BME280;11994;51.038;16.974;2023-03-15T08:02:16;99884.23;;;4.39;73.06
23635;BME280;11994;51.038;16.974;2023-03-15T08:04:41;99885.25;;;4.43;73.24
23635;BME280;11994;51.038;16.974;2023-03-15T08:07:07;99888.69;;;4.50;73.13
23635;BME280;11994;51.038;16.974;2023-03-15T08:09:32;99896.45;;;4.54;73.27
23635;BME280;11994;51.038;16.974;2023-03-15T08:11:59;99902.15;;;4.60;72.46
23635;BME280;11994;51.038;16.974;2023-03-15T08:14:24;99899.19;;;4.63;72.65
23635;BME280;11994;51.038;16.974;2023-03-15T08:16:50;99903.15;;;4.66;72.29
23635;BME280;11994;51.038;16.974;2023-03-15T08:19:15;99904.52;;;4.69;71.92
23635;BME280;11994;51.038;16.974;2023-03-15T08:21:41;99906.27;;;4.68;70.88
23635;BME280;11994;51.038;16.974;2023-03-15T08:24:10;99912.52;;;4.65;71.09
23635;BME280;11994;51.038;16.974;2023-03-15T08:26:35;99911.65;;;4.65;71.13
23635;BME280;11994;51.038;16.974;2023-03-15T08:29:01;99913.55;;;4.63;71.08
23635;BME280;11994;51.038;16.974;2023-03-15T08:31:27;99913.40;;;4.60;70.84
23635;BME280;11994;51.038;16.974;2023-03-15T08:33:52;99913.60;;;4.56;70.81
23635;BME280;11994;51.038;16.974;2023-03-15T08:36:18;99913.23;;;4.57;70.81
23635;BME280;11994;51.038;16.974;2023-03-15T08:38:43;99917.56;;;4.59;70.87
23635;BME280;11994;51.038;16.974;2023-03-15T08:41:09;99917.90;;;4.59;70.97
23635;BME280;11994;51.038;16.974;2023-03-15T08:43:34;99917.54;;;4.63;70.95
23635;BME280;11994;51.038;16.974;2023-03-15T08:45:59;99921.68;;;4.68;70.09
23635;BME280;11994;51.038;16.974;2023-03-15T08:48:25;99924.80;;;4.68;69.93
23635;BME280;11994;51.038;16.974;2023-03-15T08:50:51;99935.86;;;4.71;69.85
23635;BME280;11994;51.038;16.974;2023-03-15T08:53:16;99927.53;;;4.74;70.05
23635;BME280;11994;51.038;16.974;2023-03-15T08:55:42;99927.86;;;4.79;69.50
23635;BME280;11994;51.038;16.974;2023-03-15T08:58:07;99930.98;;;4.81;69.38
23635;BME280;11994;51.038;16.974;2023-03-15T09:00:33;99929.39;;;4.85;69.04
23635;BME280;11994;51.038;16.974;2023-03-15T09:02:58;99935.60;;;4.88;69.43
23635;BME280;11994;51.038;16.974;2023-03-15T09:05:24;99942.67;;;4.94;69.41
23635;BME280;11994;51.038;16.974;2023-03-15T09:07:50;99946.81;;;4.97;69.01
23635;BME280;11994;51.038;16.974;2023-03-15T09:10:18;99951.34;;;4.97;68.85
23635;BME280;11994;51.038;16.974;2023-03-15T09:12:46;99950.30;;;4.96;69.01
23635;BME280;11994;51.038;16.974;2023-03-15T09:15:13;99949.75;;;4.99;68.75
23635;BME280;11994;51.038;16.974;2023-03-15T09:17:39;99956.84;;;5.04;69.15
23635;BME280;11994;51.038;16.974;2023-03-15T09:20:07;99957.84;;;5.10;69.13
23635;BME280;11994;51.038;16.974;2023-03-15T09:22:54;99958.52;;;5.14;69.13
23635;BME280;11994;51.038;16.974;2023-03-15T09:25:21;99963.34;;;5.17;69.31
23635;BME280;11994;51.038;16.974;2023-03-15T09:27:48;99962.48;;;5.19;68.87
23635;BME280;11994;51.038;16.974;2023-03-15T09:30:14;99963.33;;;5.19;68.72
23635;BME280;11994;51.038;16.974;2023-03-15T09:32:40;99963.48;;;5.23;68.70
23635;BME280;11994;51.038;16.974;2023-03-15T09:35:09;99964.87;;;5.23;67.99
23635;BME280;11994;51.038;16.974;2023-03-15T09:37:36;99963.12;;;5.27;68.95
23635;BME280;11994;51.038;16.974;2023-03-15T09:40:02;99962.72;;;5.35;68.95
23635;BME280;11994;51.038;16.974;2023-03-15T09:45:26;99970.33;;;5.38;68.52
23635;BME280;11994;51.038;16.974;2023-03-15T09:48:07;99974.29;;;5.41;68.57
23635;BME280;11994;51.038;16.974;2023-03-15T09:50:40;99983.27;;;5.45;68.31
23635;BME280;11994;51.038;16.974;2023-03-15T09:53:21;99985.35;;;5.46;68.06
23635;BME280;11994;51.038;16.974;2023-03-15T09:55:50;99975.30;;;5.46;67.96
23635;BME280;11994;51.038;16.974;2023-03-15T09:58:25;99973.02;;;5.48;68.28
23635;BME280;11994;51.038;16.974;2023-03-15T10:01:02;99973.46;;;5.62;68.62
23635;BME280;11994;51.038;16.974;2023-03-15T10:03:36;99975.25;;;5.74;68.29
23635;BME280;11994;51.038;16.974;2023-03-15T10:06:11;99968.80;;;5.84;67.36
23635;BME280;11994;51.038;16.974;2023-03-15T10:08:39;99972.09;;;5.83;66.45
23635;BME280;11994;51.038;16.974;2023-03-15T10:11:14;99970.73;;;5.80;65.71
23635;BME280;11994;51.038;16.974;2023-03-15T10:16:46;99969.34;;;5.79;65.07
23635;BME280;11994;51.038;16.974;2023-03-15T10:19:37;99958.02;;;5.86;65.72
23635;BME280;11994;51.038;16.974;2023-03-15T10:27:18;99956.09;;;6.07;64.51
23635;BME280;11994;51.038;16.974;2023-03-15T10:29:44;99953.30;;;6.10;64.01
23635;BME280;11994;51.038;16.974;2023-03-15T10:32:20;99952.37;;;6.14;63.97
23635;BME280;11994;51.038;16.974;2023-03-15T10:34:51;99958.05;;;6.19;63.77
23635;BME280;11994;51.038;16.974;2023-03-15T10:37:18;99958.89;;;6.22;63.43
23635;BME280;11994;51.038;16.974;2023-03-15T10:39:48;99958.02;;;6.23;63.13
23635;BME280;11994;51.038;16.974;2023-03-15T10:42:30;99963.38;;;6.26;62.34
23635;BME280;11994;51.038;16.974;2023-03-15T10:44:56;99964.17;;;6.32;62.40
23635;BME280;11994;51.038;16.974;2023-03-15T10:47:23;99962.55;;;6.37;62.22
23635;BME280;11994;51.038;16.974;2023-03-15T10:49:50;99965.97;;;6.43;61.45
23635;BME280;11994;51.038;16.974;2023-03-15T10:52:33;99968.56;;;6.43;61.34
23635;BME280;11994;51.038;16.974;2023-03-15T10:55:20;99971.60;;;6.51;61.85
23635;BME280;11994;51.038;16.974;2023-03-15T10:57:55;99972.33;;;6.64;61.15
23635;BME280;11994;51.038;16.974;2023-03-15T11:00:32;99971.91;;;6.69;61.45
23635;BME280;11994;51.038;16.974;2023-03-15T11:03:15;99968.72;;;6.76;60.35
23635;BME280;11994;51.038;16.974;2023-03-15T11:06:17;99972.72;;;6.76;60.75
23635;BME280;11994;51.038;16.974;2023-03-15T11:08:40;99970.41;;;6.79;60.42
23635;BME280;11994;51.038;16.974;2023-03-15T11:11:07;99973.22;;;6.77;60.52
23635;BME280;11994;51.038;16.974;2023-03-15T11:13:34;99967.77;;;6.82;61.12
23635;BME280;11994;51.038;16.974;2023-03-15T11:21:22;99964.54;;;7.04;59.52
23635;BME280;11994;51.038;16.974;2023-03-15T11:23:49;99972.10;;;6.97;59.27
23635;BME280;11994;51.038;16.974;2023-03-15T11:26:21;99969.63;;;7.00;60.30
23635;BME280;11994;51.038;16.974;2023-03-15T11:28:51;99972.52;;;7.04;60.15
23635;BME280;11994;51.038;16.974;2023-03-15T11:31:24;99969.80;;;7.00;59.74
23635;BME280;11994;51.038;16.974;2023-03-15T11:34:01;99969.02;;;6.93;59.34
23635;BME280;11994;51.038;16.974;2023-03-15T11:36:31;99970.77;;;6.92;59.89
23635;BME280;11994;51.038;16.974;2023-03-15T11:38:59;99970.85;;;6.99;59.46
23635;BME280;11994;51.038;16.974;2023-03-15T11:41:51;99975.56;;;6.98;59.34
23635;BME280;11994;51.038;16.974;2023-03-15T11:44:39;99976.39;;;7.01;59.05
23635;BME280;11994;51.038;16.974;2023-03-15T11:49:40;99975.27;;;7.07;59.36
23635;BME280;11994;51.038;16.974;2023-03-15T11:52:09;99970.68;;;7.12;59.45
23635;BME280;11994;51.038;16.974;2023-03-15T11:54:35;99969.09;;;7.13;58.77
23635;BME280;11994;51.038;16.974;2023-03-15T11:57:01;99968.10;;;7.10;59.13
23635;BME280;11994;51.038;16.974;2023-03-15T11:59:32;99969.17;;;7.07;59.33
23635;BME280;11994;51.038;16.974;2023-03-15T12:04:44;99975.17;;;6.99;58.32
23635;BME280;11994;51.038;16.974;2023-03-15T12:09:55;99980.50;;;6.92;57.95
23635;BME280;11994;51.038;16.974;2023-03-15T12:15:40;99972.11;;;7.09;57.92
23635;BME280;11994;51.038;16.974;2023-03-15T12:18:01;99975.11;;;7.19;57.65
23635;BME280;11994;51.038;16.974;2023-03-15T12:20:34;99969.14;;;7.23;57.26
23635;BME280;11994;51.038;16.974;2023-03-15T12:25:56;99971.67;;;7.16;56.62
23635;BME280;11994;51.038;16.974;2023-03-15T12:28:29;99974.16;;;7.11;56.35
23635;BME280;11994;51.038;16.974;2023-03-15T12:30:58;99973.20;;;7.05;56.46
23635;BME280;11994;51.038;16.974;2023-03-15T12:33:27;99975.30;;;7.04;56.71
23635;BME280;11994;51.038;16.974;2023-03-15T12:36:02;99974.95;;;7.05;56.79
23635;BME280;11994;51.038;16.974;2023-03-15T12:38:37;99974.23;;;7.06;56.78
23635;BME280;11994;51.038;16.974;2023-03-15T12:41:08;99975.45;;;7.07;56.02
23635;BME280;11994;51.038;16.974;2023-03-15T12:43:44;99974.23;;;7.07;56.03
23635;BME280;11994;51.038;16.974;2023-03-15T12:51:44;99974.84;;;7.13;55.92
23635;BME280;11994;51.038;16.974;2023-03-15T12:54:19;99974.30;;;7.14;55.46
23635;BME280;11994;51.038;16.974;2023-03-15T12:56:49;99970.66;;;7.12;55.03
23635;BME280;11994;51.038;16.974;2023-03-15T13:02:18;99970.23;;;7.19;54.99
23635;BME280;11994;51.038;16.974;2023-03-15T13:04:47;99977.61;;;7.26;54.47
23635;BME280;11994;51.038;16.974;2023-03-15T13:07:23;99976.86;;;7.29;54.12
23635;BME280;11994;51.038;16.974;2023-03-15T13:12:35;99976.55;;;7.27;53.92
23635;BME280;11994;51.038;16.974;2023-03-15T13:15:20;99981.86;;;7.33;54.69
23635;BME280;11994;51.038;16.974;2023-03-15T13:20:41;99989.17;;;7.44;53.96
23635;BME280;11994;51.038;16.974;2023-03-15T13:23:29;99990.60;;;7.41;54.30
23635;BME280;11994;51.038;16.974;2023-03-15T13:26:22;99994.77;;;7.42;54.32
23635;BME280;11994;51.038;16.974;2023-03-15T13:28:59;99993.20;;;7.43;54.72
23635;BME280;11994;51.038;16.974;2023-03-15T13:31:27;99998.38;;;7.46;54.92
23635;BME280;11994;51.038;16.974;2023-03-15T13:33:56;100007.69;;;7.40;54.53
23635;BME280;11994;51.038;16.974;2023-03-15T13:36:45;100012.98;;;7.34;54.79
23635;BME280;11994;51.038;16.974;2023-03-15T13:39:17;100017.21;;;7.30;55.52
23635;BME280;11994;51.038;16.974;2023-03-15T13:41:43;100022.70;;;7.23;56.08
23635;BME280;11994;51.038;16.974;2023-03-15T13:44:20;100022.35;;;7.10;56.52
23635;BME280;11994;51.038;16.974;2023-03-15T13:46:48;100034.80;;;7.01;56.83
23635;BME280;11994;51.038;16.974;2023-03-15T13:49:13;100035.44;;;6.92;57.36
23635;BME280;11994;51.038;16.974;2023-03-15T13:51:39;100036.72;;;6.85;58.09
23635;BME280;11994;51.038;16.974;2023-03-15T13:54:10;100034.78;;;6.88;58.67
23635;BME280;11994;51.038;16.974;2023-03-15T13:56:53;100037.39;;;6.89;58.76
23635;BME280;11994;51.038;16.974;2023-03-15T13:59:28;100032.73;;;6.86;58.73